Time,TemperatureF,DewpointF,PressureIn,WindDirection,WindDirectionDegrees,WindSpeedMPH,WindSpeedGustMPH,Humidity,HourlyPrecipIn,Conditions,Clouds,dailyrainin,SolarRadiationWatts/m^2,SoftwareType,DateUTC
2013-01-14 00:02:00,31.0,30.0,-100.00,South,172,0.0,0.0,96,0.00,,,0.00,1.000000,,2013-01-14 09:02:00,
2013-01-14 00:12:00,31.0,30.0,-100.00,South,172,0.0,0.0,96,0.00,,,0.00,1.000000,,2013-01-14 09:12:00,
2013-01-14 00:22:00,31.0,30.0,-100.00,South,172,0.0,0.0,96,0.00,,,0.00,1.000000,,2013-01-14 09:22:00,
2013-01-14 01:53:00,31.0,30.0,-100.00,SSE,160,1.0,1.0,96,-99.99,,,0.00,1.000000,,2013-01-14 10:53:00,
2013-01-14 02:02:00,31.0,30.0,-100.00,SSE,160,1.0,1.0,96,-99.99,,,0.00,1.000000,,2013-01-14 11:02:00,
2013-01-14 02:12:00,31.0,30.0,-100.00,SSE,160,1.0,1.0,96,-99.99,,,0.00,1.000000,,2013-01-14 11:12:00,
2013-01-14 02:22:00,31.0,30.0,-100.00,SSE,160,1.0,1.0,96,-99.99,,,0.00,1.000000,,2013-01-14 11:22:00,
2013-01-14 02:53:00,31.0,30.0,-100.00,SSE,161,0.0,0.0,96,0.00,,,0.00,1.000000,,2013-01-14 11:53:00,
2013-01-14 03:02:00,31.0,30.0,-100.00,SSE,161,0.0,0.0,96,0.00,,,0.00,1.000000,,2013-01-14 12:02:00,
2013-01-14 03:12:00,31.0,30.0,-100.00,SSE,161,0.0,0.0,96,0.00,,,0.00,1.000000,,2013-01-14 12:12:00,
2013-01-14 03:22:00,31.0,30.0,-100.00,SSE,161,0.0,0.0,96,0.00,,,0.00,1.000000,,2013-01-14 12:22:00,
2013-01-14 03:53:00,29.0,28.0,-100.00,South,174,0.0,0.0,96,0.00,,,0.00,1.000000,,2013-01-14 12:53:00,
2013-01-14 04:03:00,29.0,28.0,-100.00,South,174,0.0,0.0,96,0.00,,,0.00,1.000000,,2013-01-14 13:03:00,
2013-01-14 04:12:00,29.0,28.0,-100.00,South,174,0.0,0.0,96,0.00,,,0.00,1.000000,,2013-01-14 13:12:00,
2013-01-14 04:22:00,29.0,28.0,-100.00,South,174,0.0,0.0,96,0.00,,,0.00,1.000000,,2013-01-14 13:22:00,
2013-01-14 04:53:00,30.0,29.0,-100.00,SSE,158,0.0,0.0,95,0.00,,,0.00,1.000000,,2013-01-14 13:53:00,
2013-01-14 05:02:00,30.0,29.0,-100.00,SSE,158,0.0,0.0,95,0.00,,,0.00,1.000000,,2013-01-14 14:02:00,
2013-01-14 05:12:00,30.0,29.0,-100.00,SSE,158,0.0,0.0,95,0.00,,,0.00,1.000000,,2013-01-14 14:12:00,
2013-01-14 05:22:00,30.0,29.0,-100.00,SSE,158,0.0,0.0,95,0.00,,,0.00,1.000000,,2013-01-14 14:22:00,
2013-01-14 05:53:00,29.0,28.0,-100.00,South,177,0.0,0.0,95,0.00,,,0.00,1.000000,,2013-01-14 14:53:00,
2013-01-14 06:03:00,29.0,28.0,-100.00,South,177,0.0,0.0,95,0.00,,,0.00,1.000000,,2013-01-14 15:03:00,
2013-01-14 06:12:00,29.0,28.0,-100.00,South,177,0.0,0.0,95,0.00,,,0.00,1.000000,,2013-01-14 15:12:00,
2013-01-14 06:23:00,29.0,28.0,-100.00,South,177,0.0,0.0,95,0.00,,,0.00,1.000000,,2013-01-14 15:23:00,
2013-01-14 06:53:00,29.0,28.0,-100.00,South,179,0.0,0.0,95,0.00,,,0.00,1.000000,,2013-01-14 15:53:00,
2013-01-14 07:02:00,29.0,28.0,-100.00,South,179,0.0,0.0,95,0.00,,,0.00,1.000000,,2013-01-14 16:02:00,
2013-01-14 07:12:00,29.0,28.0,-100.00,South,179,0.0,0.0,95,0.00,,,0.00,1.000000,,2013-01-14 16:12:00,
2013-01-14 07:22:00,29.0,28.0,-100.00,South,179,0.0,0.0,95,0.00,,,0.00,1.000000,,2013-01-14 16:22:00,
2013-01-14 07:53:00,30.0,29.0,-100.00,SSE,156,0.0,0.0,95,0.00,,,0.00,1.000000,,2013-01-14 16:53:00,
2013-01-14 08:03:00,30.0,29.0,-100.00,SSE,156,0.0,0.0,95,0.00,,,0.00,1.000000,,2013-01-14 17:03:00,
2013-01-14 08:12:00,30.0,29.0,-100.00,SSE,156,0.0,0.0,95,0.00,,,0.00,1.000000,,2013-01-14 17:12:00,
2013-01-14 08:22:00,30.0,29.0,-100.00,SSE,156,0.0,0.0,95,0.00,,,0.00,1.000000,,2013-01-14 17:22:00,
2013-01-14 08:53:00,31.0,30.0,-100.00,South,174,0.0,0.0,96,0.00,,,0.00,1.000000,,2013-01-14 17:53:00,
2013-01-14 09:03:00,31.0,30.0,-100.00,South,174,0.0,0.0,96,0.00,,,0.00,1.000000,,2013-01-14 18:03:00,
2013-01-14 09:12:00,31.0,30.0,-100.00,South,174,0.0,0.0,96,0.00,,,0.00,1.000000,,2013-01-14 18:12:00,
2013-01-14 09:22:00,31.0,30.0,-100.00,South,174,0.0,0.0,96,0.00,,,0.00,1.000000,,2013-01-14 18:22:00,
2013-01-14 10:53:00,33.0,32.0,-100.00,East,97,2.0,8.0,96,-99.99,,,-99.99,1.000000,,2013-01-14 19:53:00,
2013-01-14 11:03:00,33.0,32.0,-100.00,East,97,2.0,8.0,96,-99.99,,,-99.99,1.000000,,2013-01-14 20:03:00,
2013-01-14 11:12:00,33.0,32.0,-100.00,East,97,2.0,8.0,96,-99.99,,,-99.99,1.000000,,2013-01-14 20:12:00,
2013-01-14 11:22:00,33.0,32.0,-100.00,East,97,2.0,8.0,96,-99.99,,,-99.99,1.000000,,2013-01-14 20:22:00,
2013-01-14 11:53:00,33.0,32.0,-100.00,ESE,121,3.0,6.0,96,0.00,,,0.00,2.000000,,2013-01-14 20:53:00,
2013-01-14 12:02:00,33.0,32.0,-100.00,ESE,121,3.0,6.0,96,0.00,,,0.00,2.000000,,2013-01-14 21:02:00,
2013-01-14 12:12:00,33.0,32.0,-100.00,ESE,121,3.0,6.0,96,0.00,,,0.00,2.000000,,2013-01-14 21:12:00,
2013-01-14 12:22:00,33.0,32.0,-100.00,ESE,121,3.0,6.0,96,0.00,,,0.00,2.000000,,2013-01-14 21:22:00,
2013-01-14 12:53:00,33.0,32.0,-100.00,East,91,3.0,5.0,96,0.00,,,0.00,5.000000,,2013-01-14 21:53:00,
2013-01-14 13:02:00,33.0,32.0,-100.00,East,91,3.0,5.0,96,0.00,,,0.00,5.000000,,2013-01-14 22:02:00,
2013-01-14 13:12:00,33.0,32.0,-100.00,East,91,3.0,5.0,96,0.00,,,0.00,5.000000,,2013-01-14 22:12:00,
2013-01-14 13:22:00,33.0,32.0,-100.00,East,91,3.0,5.0,96,0.00,,,0.00,5.000000,,2013-01-14 22:22:00,
2013-01-14 13:52:00,32.0,31.0,-100.00,ESE,103,3.0,7.0,96,0.00,,,0.00,6.000000,,2013-01-14 22:52:00,
2013-01-14 14:02:00,32.0,31.0,-100.00,ESE,103,3.0,7.0,96,0.00,,,0.00,6.000000,,2013-01-14 23:02:00,
2013-01-14 14:12:00,32.0,31.0,-100.00,ESE,103,3.0,7.0,96,0.00,,,0.00,6.000000,,2013-01-14 23:12:00,
2013-01-14 14:22:00,32.0,31.0,-100.00,ESE,103,3.0,7.0,96,0.00,,,0.00,6.000000,,2013-01-14 23:22:00,
2013-01-14 14:53:00,33.0,32.0,-100.00,NE,39,2.0,6.0,96,0.00,,,0.00,12.000000,,2013-01-14 23:53:00,
2013-01-14 15:02:00,33.0,32.0,-100.00,NE,39,2.0,6.0,96,0.00,,,0.00,12.000000,,2013-01-15 00:02:00,
2013-01-14 15:12:00,33.0,32.0,-100.00,NE,39,2.0,6.0,96,0.00,,,0.00,12.000000,,2013-01-15 00:12:00,
2013-01-14 15:22:00,33.0,32.0,-100.00,NE,39,2.0,6.0,96,0.00,,,0.00,12.000000,,2013-01-15 00:22:00,
2013-01-14 15:53:00,33.0,32.0,-100.00,East,83,1.0,7.0,96,0.00,,,0.00,5.000000,,2013-01-15 00:53:00,
2013-01-14 16:02:00,33.0,32.0,-100.00,East,83,1.0,7.0,96,0.00,,,0.00,5.000000,,2013-01-15 01:02:00,
2013-01-14 16:12:00,33.0,32.0,-100.00,East,83,1.0,7.0,96,0.00,,,0.00,5.000000,,2013-01-15 01:12:00,
2013-01-14 16:22:00,33.0,32.0,-100.00,East,83,1.0,7.0,96,0.00,,,0.00,5.000000,,2013-01-15 01:22:00,
2013-01-14 16:52:00,32.0,31.0,-100.00,East,87,2.0,6.0,96,0.00,,,0.00,1.000000,,2013-01-15 01:52:00,
2013-01-14 17:02:00,32.0,31.0,-100.00,East,87,2.0,6.0,96,0.00,,,0.00,1.000000,,2013-01-15 02:02:00,
2013-01-14 17:12:00,32.0,31.0,-100.00,East,87,2.0,6.0,96,0.00,,,0.00,1.000000,,2013-01-15 02:12:00,
2013-01-14 17:22:00,32.0,31.0,-100.00,East,87,2.0,6.0,96,0.00,,,0.00,1.000000,,2013-01-15 02:22:00,
2013-01-14 17:53:00,32.0,31.0,-100.00,East,95,2.0,6.0,96,0.00,,,0.00,1.000000,,2013-01-15 02:53:00,
2013-01-14 18:02:00,32.0,31.0,-100.00,East,95,2.0,6.0,96,0.00,,,0.00,1.000000,,2013-01-15 03:02:00,
2013-01-14 18:12:00,32.0,31.0,-100.00,East,95,2.0,6.0,96,0.00,,,0.00,1.000000,,2013-01-15 03:12:00,
2013-01-14 18:22:00,32.0,31.0,-100.00,East,95,2.0,6.0,96,0.00,,,0.00,1.000000,,2013-01-15 03:22:00,
2013-01-14 18:52:00,33.0,32.0,-100.00,East,99,3.0,7.0,96,0.00,,,0.00,1.000000,,2013-01-15 03:52:00,
2013-01-14 19:02:00,33.0,32.0,-100.00,East,99,3.0,7.0,96,0.00,,,0.00,1.000000,,2013-01-15 04:02:00,
2013-01-14 19:12:00,33.0,32.0,-100.00,East,99,3.0,7.0,96,0.00,,,0.00,1.000000,,2013-01-15 04:12:00,
2013-01-14 19:22:00,33.0,32.0,-100.00,East,99,3.0,7.0,96,0.00,,,0.00,1.000000,,2013-01-15 04:22:00,
2013-01-14 19:52:00,33.0,32.0,-100.00,East,90,2.0,7.0,96,0.00,,,0.00,1.000000,,2013-01-15 04:52:00,
2013-01-14 20:03:00,33.0,32.0,-100.00,East,90,2.0,7.0,96,0.00,,,0.00,1.000000,,2013-01-15 05:03:00,
2013-01-14 20:12:00,33.0,32.0,-100.00,East,90,2.0,7.0,96,0.00,,,0.00,1.000000,,2013-01-15 05:12:00,
2013-01-14 20:22:00,33.0,32.0,-100.00,East,90,2.0,7.0,96,0.00,,,0.00,1.000000,,2013-01-15 05:22:00,
2013-01-14 20:52:00,33.0,32.0,-100.00,SE,142,1.0,6.0,96,0.00,,,0.00,1.000000,,2013-01-15 05:52:00,
2013-01-14 21:02:00,33.0,32.0,-100.00,SE,142,1.0,6.0,96,0.00,,,0.00,1.000000,,2013-01-15 06:02:00,
2013-01-14 21:12:00,33.0,32.0,-100.00,SE,142,1.0,6.0,96,0.00,,,0.00,1.000000,,2013-01-15 06:12:00,
2013-01-14 21:22:00,33.0,32.0,-100.00,SE,142,1.0,6.0,96,0.00,,,0.00,1.000000,,2013-01-15 06:22:00,
2013-01-14 21:53:00,33.0,32.0,-100.00,South,189,3.0,9.0,96,0.00,,,0.00,1.000000,,2013-01-15 06:53:00,
2013-01-14 22:02:00,33.0,32.0,-100.00,South,189,3.0,9.0,96,0.00,,,0.00,1.000000,,2013-01-15 07:02:00,
2013-01-14 22:12:00,33.0,32.0,-100.00,South,189,3.0,9.0,96,0.00,,,0.00,1.000000,,2013-01-15 07:12:00,
2013-01-14 22:22:00,33.0,32.0,-100.00,South,189,3.0,9.0,96,0.00,,,0.00,1.000000,,2013-01-15 07:22:00,
2013-01-14 22:52:00,32.0,31.0,-100.00,SSW,212,5.0,11.0,96,0.00,,,0.00,1.000000,,2013-01-15 07:52:00,
2013-01-14 23:02:00,32.0,31.0,-100.00,SSW,212,5.0,11.0,96,0.00,,,0.00,1.000000,,2013-01-15 08:02:00,
2013-01-14 23:12:00,32.0,31.0,-100.00,SSW,212,5.0,11.0,96,0.00,,,0.00,1.000000,,2013-01-15 08:12:00,
2013-01-14 23:22:00,32.0,31.0,-100.00,SSW,212,5.0,11.0,96,0.00,,,0.00,1.000000,,2013-01-15 08:22:00,
2013-01-14 23:53:00,30.0,28.0,-100.00,SW,234,6.0,20.0,91,0.00,,,0.00,1.000000,,2013-01-15 08:53:00,